sensor_id;sensor_type;location;lat;lon;timestamp;temperature;humidity
11093;DHT22;5600;50.864;6.102;2024-02-15T00:00:02;12.40;99.90
11093;DHT22;5600;50.864;6.102;2024-02-15T00:06:09;12.40;99.90
11093;DHT22;5600;50.864;6.102;2024-02-15T00:18:14;12.40;99.90
11093;DHT22;5600;50.864;6.102;2024-02-15T00:24:16;12.60;99.90
11093;DHT22;5600;50.864;6.102;2024-02-15T00:33:19;12.60;99.90
11093;DHT22;5600;50.864;6.102;2024-02-15T00:39:21;12.60;99.90
11093;DHT22;5600;50.864;6.102;2024-02-15T00:45:24;12.80;99.90
11093;DHT22;5600;50.864;6.102;2024-02-15T00:48:24;12.70;99.90
11093;DHT22;5600;50.864;6.102;2024-02-15T00:51:26;12.70;99.90
11093;DHT22;5600;50.864;6.102;2024-02-15T00:57:28;12.70;99.90
11093;DHT22;5600;50.864;6.102;2024-02-15T01:06:32;12.70;99.90
11093;DHT22;5600;50.864;6.102;2024-02-15T01:18:38;12.80;99.90
11093;DHT22;5600;50.864;6.102;2024-02-15T01:21:38;12.90;99.90
11093;DHT22;5600;50.864;6.102;2024-02-15T01:27:41;12.90;99.90
11093;DHT22;5600;50.864;6.102;2024-02-15T01:33:44;12.90;99.90
11093;DHT22;5600;50.864;6.102;2024-02-15T01:36:48;12.90;99.90
11093;DHT22;5600;50.864;6.102;2024-02-15T01:39:51;13.00;99.90
11093;DHT22;5600;50.864;6.102;2024-02-15T01:42:52;13.00;99.90
11093;DHT22;5600;50.864;6.102;2024-02-15T01:58:00;12.90;99.90
11093;DHT22;5600;50.864;6.102;2024-02-15T02:04:03;12.90;99.90
11093;DHT22;5600;50.864;6.102;2024-02-15T02:10:06;12.80;99.90
11093;DHT22;5600;50.864;6.102;2024-02-15T02:13:09;12.80;99.90
11093;DHT22;5600;50.864;6.102;2024-02-15T02:16:30;12.90;99.90
11093;DHT22;5600;50.864;6.102;2024-02-15T02:22:36;13.00;99.90
11093;DHT22;5600;50.864;6.102;2024-02-15T02:25:38;13.00;99.90
11093;DHT22;5600;50.864;6.102;2024-02-15T02:31:40;13.00;99.90
11093;DHT22;5600;50.864;6.102;2024-02-15T02:34:43;13.00;99.90
11093;DHT22;5600;50.864;6.102;2024-02-15T02:43:48;12.90;99.90
11093;DHT22;5600;50.864;6.102;2024-02-15T02:46:48;12.90;99.90
11093;DHT22;5600;50.864;6.102;2024-02-15T02:49:49;12.90;99.90
11093;DHT22;5600;50.864;6.102;2024-02-15T02:52:50;13.00;99.90
11093;DHT22;5600;50.864;6.102;2024-02-15T02:55:51;13.00;99.90
11093;DHT22;5600;50.864;6.102;2024-02-15T03:01:53;12.80;99.90
11093;DHT22;5600;50.864;6.102;2024-02-15T03:08:00;12.70;99.90
11093;DHT22;5600;50.864;6.102;2024-02-15T03:14:02;12.70;99.90
11093;DHT22;5600;50.864;6.102;2024-02-15T03:17:06;12.70;99.90
11093;DHT22;5600;50.864;6.102;2024-02-15T03:20:08;12.80;99.90
11093;DHT22;5600;50.864;6.102;2024-02-15T03:23:29;12.70;99.90
11093;DHT22;5600;50.864;6.102;2024-02-15T03:26:31;12.60;99.90
11093;DHT22;5600;50.864;6.102;2024-02-15T03:29:37;12.60;99.90
11093;DHT22;5600;50.864;6.102;2024-02-15T03:35:39;12.50;99.90
11093;DHT22;5600;50.864;6.102;2024-02-15T03:44:43;12.40;99.90
11093;DHT22;5600;50.864;6.102;2024-02-15T03:56:50;12.40;99.90
11093;DHT22;5600;50.864;6.102;2024-02-15T03:59:55;12.40;99.90
11093;DHT22;5600;50.864;6.102;2024-02-15T04:09:00;12.20;99.90
11093;DHT22;5600;50.864;6.102;2024-02-15T04:12:02;12.10;99.90
11093;DHT22;5600;50.864;6.102;2024-02-15T04:15:03;12.10;99.90
11093;DHT22;5600;50.864;6.102;2024-02-15T04:21:13;12.10;99.90
11093;DHT22;5600;50.864;6.102;2024-02-15T04:24:14;12.10;99.90
11093;DHT22;5600;50.864;6.102;2024-02-15T04:27:15;12.10;99.90
11093;DHT22;5600;50.864;6.102;2024-02-15T04:30:15;12.20;99.90
11093;DHT22;5600;50.864;6.102;2024-02-15T04:33:16;12.20;99.90
11093;DHT22;5600;50.864;6.102;2024-02-15T04:36:17;12.20;99.90
11093;DHT22;5600;50.864;6.102;2024-02-15T04:42:24;12.30;99.90
11093;DHT22;5600;50.864;6.102;2024-02-15T04:45:27;12.40;99.90
11093;DHT22;5600;50.864;6.102;2024-02-15T04:48:33;12.40;99.90
11093;DHT22;5600;50.864;6.102;2024-02-15T04:54:37;12.50;99.90
11093;DHT22;5600;50.864;6.102;2024-02-15T05:00:41;12.40;99.90
11093;DHT22;5600;50.864;6.102;2024-02-15T05:03:43;12.50;99.90
11093;DHT22;5600;50.864;6.102;2024-02-15T05:06:44;12.40;99.90
11093;DHT22;5600;50.864;6.102;2024-02-15T05:09:45;12.50;99.90
11093;DHT22;5600;50.864;6.102;2024-02-15T05:12:46;12.40;99.90
11093;DHT22;5600;50.864;6.102;2024-02-15T05:18:51;12.50;99.90
11093;DHT22;5600;50.864;6.102;2024-02-15T05:24:53;12.40;99.90
11093;DHT22;5600;50.864;6.102;2024-02-15T05:27:54;12.40;99.90
11093;DHT22;5600;50.864;6.102;2024-02-15T05:31:17;12.40;99.90
11093;DHT22;5600;50.864;6.102;2024-02-15T05:34:20;12.50;99.90
11093;DHT22;5600;50.864;6.102;2024-02-15T05:40:23;12.50;99.90
11093;DHT22;5600;50.864;6.102;2024-02-15T05:43:24;12.60;99.90
11093;DHT22;5600;50.864;6.102;2024-02-15T05:55:31;12.80;99.90
11093;DHT22;5600;50.864;6.102;2024-02-15T06:01:37;12.70;99.90
11093;DHT22;5600;50.864;6.102;2024-02-15T06:04:38;12.70;99.90
11093;DHT22;5600;50.864;6.102;2024-02-15T06:07:41;12.70;99.90
11093;DHT22;5600;50.864;6.102;2024-02-15T06:13:43;12.60;99.90
11093;DHT22;5600;50.864;6.102;2024-02-15T06:16:46;12.70;99.90
11093;DHT22;5600;50.864;6.102;2024-02-15T06:22:48;12.70;99.90
11093;DHT22;5600;50.864;6.102;2024-02-15T06:25:51;12.70;99.90
11093;DHT22;5600;50.864;6.102;2024-02-15T06:32:16;12.70;99.90
11093;DHT22;5600;50.864;6.102;2024-02-15T06:35:36;12.70;99.90
11093;DHT22;5600;50.864;6.102;2024-02-15T06:42:16;12.90;99.90
11093;DHT22;5600;50.864;6.102;2024-02-15T07:00:26;12.90;99.90
11093;DHT22;5600;50.864;6.102;2024-02-15T07:09:35;13.00;99.90
11093;DHT22;5600;50.864;6.102;2024-02-15T07:12:36;13.00;99.90
11093;DHT22;5600;50.864;6.102;2024-02-15T07:15:38;13.10;99.90
11093;DHT22;5600;50.864;6.102;2024-02-15T07:18:39;13.10;99.90
11093;DHT22;5600;50.864;6.102;2024-02-15T07:21:40;13.10;99.90
11093;DHT22;5600;50.864;6.102;2024-02-15T07:24:41;13.00;99.90
11093;DHT22;5600;50.864;6.102;2024-02-15T07:27:41;13.10;99.90
11093;DHT22;5600;50.864;6.102;2024-02-15T07:36:44;13.30;99.90
11093;DHT22;5600;50.864;6.102;2024-02-15T07:39:46;13.40;99.90
11093;DHT22;5600;50.864;6.102;2024-02-15T07:42:50;13.40;99.90
11093;DHT22;5600;50.864;6.102;2024-02-15T07:48:53;13.40;99.90
11093;DHT22;5600;50.864;6.102;2024-02-15T08:07:01;13.80;99.90
11093;DHT22;5600;50.864;6.102;2024-02-15T08:10:02;13.90;99.90
11093;DHT22;5600;50.864;6.102;2024-02-15T08:13:04;13.90;99.90
11093;DHT22;5600;50.864;6.102;2024-02-15T08:16:05;14.10;99.90
11093;DHT22;5600;50.864;6.102;2024-02-15T08:19:06;14.10;99.90
11093;DHT22;5600;50.864;6.102;2024-02-15T08:25:12;14.30;99.90
11093;DHT22;5600;50.864;6.102;2024-02-15T08:31:15;14.40;99.90
11093;DHT22;5600;50.864;6.102;2024-02-15T08:34:16;14.40;99.90
11093;DHT22;5600;50.864;6.102;2024-02-15T08:40:20;14.50;99.90
11093;DHT22;5600;50.864;6.102;2024-02-15T08:43:25;14.60;99.90
11093;DHT22;5600;50.864;6.102;2024-02-15T08:46:26;14.60;99.90
11093;DHT22;5600;50.864;6.102;2024-02-15T08:52:31;14.60;99.90
11093;DHT22;5600;50.864;6.102;2024-02-15T08:55:32;14.70;99.90
11093;DHT22;5600;50.864;6.102;2024-02-15T08:58:36;14.90;99.90
11093;DHT22;5600;50.864;6.102;2024-02-15T09:01:38;14.90;99.90
11093;DHT22;5600;50.864;6.102;2024-02-15T09:04:40;14.90;99.90
11093;DHT22;5600;50.864;6.102;2024-02-15T09:07:42;15.10;99.90
11093;DHT22;5600;50.864;6.102;2024-02-15T09:10:43;15.10;99.90
11093;DHT22;5600;50.864;6.102;2024-02-15T09:16:45;15.30;99.90
11093;DHT22;5600;50.864;6.102;2024-02-15T09:19:48;15.40;99.90
11093;DHT22;5600;50.864;6.102;2024-02-15T09:22:52;15.30;99.90
11093;DHT22;5600;50.864;6.102;2024-02-15T09:25:54;15.30;99.90
11093;DHT22;5600;50.864;6.102;2024-02-15T09:31:57;15.50;99.90
11093;DHT22;5600;50.864;6.102;2024-02-15T09:34:58;15.40;99.90
11093;DHT22;5600;50.864;6.102;2024-02-15T09:37:58;15.50;99.90
11093;DHT22;5600;50.864;6.102;2024-02-15T09:44:00;15.60;99.90
11093;DHT22;5600;50.864;6.102;2024-02-15T09:47:04;15.70;99.90
11093;DHT22;5600;50.864;6.102;2024-02-15T09:50:09;15.80;99.90
11093;DHT22;5600;50.864;6.102;2024-02-15T09:53:15;15.80;99.90
11093;DHT22;5600;50.864;6.102;2024-02-15T09:56:16;15.90;99.90
11093;DHT22;5600;50.864;6.102;2024-02-15T09:59:18;15.90;99.90
11093;DHT22;5600;50.864;6.102;2024-02-15T10:02:20;16.00;99.90
11093;DHT22;5600;50.864;6.102;2024-02-15T10:05:22;16.00;99.90
11093;DHT22;5600;50.864;6.102;2024-02-15T10:14:28;16.30;99.90
11093;DHT22;5600;50.864;6.102;2024-02-15T10:17:29;16.40;99.90
11093;DHT22;5600;50.864;6.102;2024-02-15T10:20:36;16.50;99.90
11093;DHT22;5600;50.864;6.102;2024-02-15T10:29:41;16.60;99.90
11093;DHT22;5600;50.864;6.102;2024-02-15T10:32:43;16.80;99.90
11093;DHT22;5600;50.864;6.102;2024-02-15T10:41:48;16.90;99.90
11093;DHT22;5600;50.864;6.102;2024-02-15T10:44:51;17.00;99.90
11093;DHT22;5600;50.864;6.102;2024-02-15T10:50:56;17.30;99.90
11093;DHT22;5600;50.864;6.102;2024-02-15T10:54:02;17.30;99.90
11093;DHT22;5600;50.864;6.102;2024-02-15T10:57:06;17.50;99.90
11093;DHT22;5600;50.864;6.102;2024-02-15T11:00:12;17.50;99.90
11093;DHT22;5600;50.864;6.102;2024-02-15T11:03:34;17.50;99.90
11093;DHT22;5600;50.864;6.102;2024-02-15T11:06:38;17.60;99.90
11093;DHT22;5600;50.864;6.102;2024-02-15T11:09:42;17.50;99.90
11093;DHT22;5600;50.864;6.102;2024-02-15T11:12:44;17.60;99.90
11093;DHT22;5600;50.864;6.102;2024-02-15T11:15:45;17.50;99.90
11093;DHT22;5600;50.864;6.102;2024-02-15T11:18:49;17.60;99.90
11093;DHT22;5600;50.864;6.102;2024-02-15T11:21:53;17.50;99.90
11093;DHT22;5600;50.864;6.102;2024-02-15T11:24:54;17.40;99.90
11093;DHT22;5600;50.864;6.102;2024-02-15T11:27:57;17.40;99.90
11093;DHT22;5600;50.864;6.102;2024-02-15T11:30:58;17.40;99.90
11093;DHT22;5600;50.864;6.102;2024-02-15T11:33:59;17.60;99.90
11093;DHT22;5600;50.864;6.102;2024-02-15T11:37:00;17.70;99.90
11093;DHT22;5600;50.864;6.102;2024-02-15T11:40:02;17.80;99.90
11093;DHT22;5600;50.864;6.102;2024-02-15T11:49:07;17.90;99.90
11093;DHT22;5600;50.864;6.102;2024-02-15T11:52:16;18.00;99.90
11093;DHT22;5600;50.864;6.102;2024-02-15T11:55:22;17.90;99.90
11093;DHT22;5600;50.864;6.102;2024-02-15T12:01:31;17.80;99.90
11093;DHT22;5600;50.864;6.102;2024-02-15T12:04:50;17.80;99.90
11093;DHT22;5600;50.864;6.102;2024-02-15T12:08:10;17.60;99.90
11093;DHT22;5600;50.864;6.102;2024-02-15T12:11:30;17.50;99.90
11093;DHT22;5600;50.864;6.102;2024-02-15T12:18:17;17.30;99.90
11093;DHT22;5600;50.864;6.102;2024-02-15T12:21:37;17.30;99.90
11093;DHT22;5600;50.864;6.102;2024-02-15T12:24:42;17.20;99.90
11093;DHT22;5600;50.864;6.102;2024-02-15T12:27:43;17.10;99.90
11093;DHT22;5600;50.864;6.102;2024-02-15T12:36:50;17.20;99.90
11093;DHT22;5600;50.864;6.102;2024-02-15T12:39:52;17.20;99.90
11093;DHT22;5600;50.864;6.102;2024-02-15T12:42:53;17.20;99.90
11093;DHT22;5600;50.864;6.102;2024-02-15T12:45:54;17.10;99.90
11093;DHT22;5600;50.864;6.102;2024-02-15T12:52:37;17.20;99.90
11093;DHT22;5600;50.864;6.102;2024-02-15T12:55:39;17.20;99.90
11093;DHT22;5600;50.864;6.102;2024-02-15T12:58:41;17.30;99.90
11093;DHT22;5600;50.864;6.102;2024-02-15T13:01:44;17.30;99.90
11093;DHT22;5600;50.864;6.102;2024-02-15T13:04:44;17.30;99.90
11093;DHT22;5600;50.864;6.102;2024-02-15T13:07:49;17.40;99.90
11093;DHT22;5600;50.864;6.102;2024-02-15T13:10:50;17.40;99.90
11093;DHT22;5600;50.864;6.102;2024-02-15T13:13:52;17.50;99.90
11093;DHT22;5600;50.864;6.102;2024-02-15T13:16:52;17.50;99.90
11093;DHT22;5600;50.864;6.102;2024-02-15T13:19:53;17.60;99.90
11093;DHT22;5600;50.864;6.102;2024-02-15T13:23:10;17.40;99.90
11093;DHT22;5600;50.864;6.102;2024-02-15T13:26:31;17.40;99.90
11093;DHT22;5600;50.864;6.102;2024-02-15T13:29:34;17.30;99.90
11093;DHT22;5600;50.864;6.102;2024-02-15T13:32:36;17.30;99.90
11093;DHT22;5600;50.864;6.102;2024-02-15T13:35:38;17.30;99.90
11093;DHT22;5600;50.864;6.102;2024-02-15T13:38:38;17.20;99.90
11093;DHT22;5600;50.864;6.102;2024-02-15T13:41:39;17.10;99.90
11093;DHT22;5600;50.864;6.102;2024-02-15T13:44:40;17.10;99.90
11093;DHT22;5600;50.864;6.102;2024-02-15T13:47:41;17.00;99.90
11093;DHT22;5600;50.864;6.102;2024-02-15T13:50:44;17.00;99.90
11093;DHT22;5600;50.864;6.102;2024-02-15T13:53:45;17.00;99.90
11093;DHT22;5600;50.864;6.102;2024-02-15T13:56:45;16.90;99.90
11093;DHT22;5600;50.864;6.102;2024-02-15T13:59:46;16.80;99.90
11093;DHT22;5600;50.864;6.102;2024-02-15T14:02:51;16.70;99.90
11093;DHT22;5600;50.864;6.102;2024-02-15T14:05:52;16.70;99.90
11093;DHT22;5600;50.864;6.102;2024-02-15T14:08:53;16.60;99.90
11093;DHT22;5600;50.864;6.102;2024-02-15T14:11:54;16.60;99.90
11093;DHT22;5600;50.864;6.102;2024-02-15T14:14:55;16.60;99.90
11093;DHT22;5600;50.864;6.102;2024-02-15T14:17:56;16.60;99.90
11093;DHT22;5600;50.864;6.102;2024-02-15T14:20:57;16.60;99.90
11093;DHT22;5600;50.864;6.102;2024-02-15T14:27:04;16.70;99.90
11093;DHT22;5600;50.864;6.102;2024-02-15T14:30:05;16.80;99.90
11093;DHT22;5600;50.864;6.102;2024-02-15T14:36:26;16.70;99.90
11093;DHT22;5600;50.864;6.102;2024-02-15T14:39:27;16.60;99.90
11093;DHT22;5600;50.864;6.102;2024-02-15T14:45:29;12.70;99.90
11093;DHT22;5600;50.864;6.102;2024-02-15T14:48:31;16.60;99.90
11093;DHT22;5600;50.864;6.102;2024-02-15T14:51:32;16.70;99.90
11093;DHT22;5600;50.864;6.102;2024-02-15T14:54:35;16.80;99.90
11093;DHT22;5600;50.864;6.102;2024-02-15T14:57:36;16.80;99.90
11093;DHT22;5600;50.864;6.102;2024-02-15T15:00:41;16.80;99.90
11093;DHT22;5600;50.864;6.102;2024-02-15T15:03:42;16.90;99.90
11093;DHT22;5600;50.864;6.102;2024-02-15T15:06:46;16.80;99.90
11093;DHT22;5600;50.864;6.102;2024-02-15T15:10:06;16.90;99.90
11093;DHT22;5600;50.864;6.102;2024-02-15T15:13:25;17.00;99.90
11093;DHT22;5600;50.864;6.102;2024-02-15T15:16:27;17.00;99.90
11093;DHT22;5600;50.864;6.102;2024-02-15T15:19:28;17.00;99.90
11093;DHT22;5600;50.864;6.102;2024-02-15T15:22:29;17.00;99.90
11093;DHT22;5600;50.864;6.102;2024-02-15T15:25:30;17.00;99.90
11093;DHT22;5600;50.864;6.102;2024-02-15T15:28:31;17.00;99.90
11093;DHT22;5600;50.864;6.102;2024-02-15T15:31:32;17.00;99.90
11093;DHT22;5600;50.864;6.102;2024-02-15T15:34:33;17.10;99.90
11093;DHT22;5600;50.864;6.102;2024-02-15T15:37:34;17.10;99.90
11093;DHT22;5600;50.864;6.102;2024-02-15T15:40:36;17.00;99.90
11093;DHT22;5600;50.864;6.102;2024-02-15T15:43:37;17.00;99.90
11093;DHT22;5600;50.864;6.102;2024-02-15T15:46:37;16.90;99.90
11093;DHT22;5600;50.864;6.102;2024-02-15T15:49:39;16.70;99.90
11093;DHT22;5600;50.864;6.102;2024-02-15T15:52:40;16.50;99.90
11093;DHT22;5600;50.864;6.102;2024-02-15T15:55:41;16.40;99.90
11093;DHT22;5600;50.864;6.102;2024-02-15T15:58:42;16.30;99.90
11093;DHT22;5600;50.864;6.102;2024-02-15T16:01:50;16.20;99.90
11093;DHT22;5600;50.864;6.102;2024-02-15T16:04:51;16.10;99.90
11093;DHT22;5600;50.864;6.102;2024-02-15T16:07:55;16.00;99.90
11093;DHT22;5600;50.864;6.102;2024-02-15T16:10:56;15.90;99.90
11093;DHT22;5600;50.864;6.102;2024-02-15T16:13:58;15.80;99.90
11093;DHT22;5600;50.864;6.102;2024-02-15T16:16:59;15.70;99.90
11093;DHT22;5600;50.864;6.102;2024-02-15T16:20:04;15.60;99.90
11093;DHT22;5600;50.864;6.102;2024-02-15T16:26:07;15.30;99.90
11093;DHT22;5600;50.864;6.102;2024-02-15T16:29:07;15.10;99.90
11093;DHT22;5600;50.864;6.102;2024-02-15T16:32:08;14.90;99.90
11093;DHT22;5600;50.864;6.102;2024-02-15T16:35:09;14.80;99.90
11093;DHT22;5600;50.864;6.102;2024-02-15T16:38:11;14.50;99.90
11093;DHT22;5600;50.864;6.102;2024-02-15T16:41:12;14.40;99.90
11093;DHT22;5600;50.864;6.102;2024-02-15T16:44:13;14.20;99.90
11093;DHT22;5600;50.864;6.102;2024-02-15T16:47:15;14.00;99.90
11093;DHT22;5600;50.864;6.102;2024-02-15T16:50:16;13.90;99.90
11093;DHT22;5600;50.864;6.102;2024-02-15T16:56:19;13.80;99.90
11093;DHT22;5600;50.864;6.102;2024-02-15T17:02:25;13.90;99.90
11093;DHT22;5600;50.864;6.102;2024-02-15T17:05:27;14.00;99.90
11093;DHT22;5600;50.864;6.102;2024-02-15T17:08:28;14.00;99.90
11093;DHT22;5600;50.864;6.102;2024-02-15T17:11:29;14.00;99.90
11093;DHT22;5600;50.864;6.102;2024-02-15T17:23:34;13.70;99.90
11093;DHT22;5600;50.864;6.102;2024-02-15T17:26:43;13.70;99.90
11093;DHT22;5600;50.864;6.102;2024-02-15T17:32:46;13.40;99.90
11093;DHT22;5600;50.864;6.102;2024-02-15T17:35:47;13.30;99.90
11093;DHT22;5600;50.864;6.102;2024-02-15T17:41:52;13.10;99.90
11093;DHT22;5600;50.864;6.102;2024-02-15T17:44:53;13.00;99.90
11093;DHT22;5600;50.864;6.102;2024-02-15T17:47:55;12.80;99.90
11093;DHT22;5600;50.864;6.102;2024-02-15T17:50:57;12.90;99.90
11093;DHT22;5600;50.864;6.102;2024-02-15T17:53:58;12.90;99.90
11093;DHT22;5600;50.864;6.102;2024-02-15T17:56:58;12.70;99.90
11093;DHT22;5600;50.864;6.102;2024-02-15T18:09:15;12.20;99.90
11093;DHT22;5600;50.864;6.102;2024-02-15T18:12:15;12.20;99.90
11093;DHT22;5600;50.864;6.102;2024-02-15T18:15:16;12.00;99.90
11093;DHT22;5600;50.864;6.102;2024-02-15T18:18:24;11.70;99.90
11093;DHT22;5600;50.864;6.102;2024-02-15T18:21:26;11.70;99.90
11093;DHT22;5600;50.864;6.102;2024-02-15T18:33:33;11.30;99.90
11093;DHT22;5600;50.864;6.102;2024-02-15T18:36:39;11.20;99.90
11093;DHT22;5600;50.864;6.102;2024-02-15T18:39:39;11.10;99.90
11093;DHT22;5600;50.864;6.102;2024-02-15T18:45:42;11.10;99.90
11093;DHT22;5600;50.864;6.102;2024-02-15T18:51:45;11.50;99.90
11093;DHT22;5600;50.864;6.102;2024-02-15T18:54:45;11.90;99.90
11093;DHT22;5600;50.864;6.102;2024-02-15T18:57:46;12.30;99.90
11093;DHT22;5600;50.864;6.102;2024-02-15T19:03:48;12.90;99.90
11093;DHT22;5600;50.864;6.102;2024-02-15T19:06:49;13.20;99.90
11093;DHT22;5600;50.864;6.102;2024-02-15T19:09:49;13.30;99.90
11093;DHT22;5600;50.864;6.102;2024-02-15T19:12:50;13.50;99.90
11093;DHT22;5600;50.864;6.102;2024-02-15T19:18:55;13.60;99.90
11093;DHT22;5600;50.864;6.102;2024-02-15T19:22:00;13.70;99.90
11093;DHT22;5600;50.864;6.102;2024-02-15T19:25:01;13.50;99.90
11093;DHT22;5600;50.864;6.102;2024-02-15T19:31:05;12.60;99.90
11093;DHT22;5600;50.864;6.102;2024-02-15T19:34:07;12.30;99.90
11093;DHT22;5600;50.864;6.102;2024-02-15T19:43:17;12.50;99.90
11093;DHT22;5600;50.864;6.102;2024-02-15T19:55:26;12.60;99.90
11093;DHT22;5600;50.864;6.102;2024-02-15T19:58:27;12.40;99.90
11093;DHT22;5600;50.864;6.102;2024-02-15T20:04:29;12.20;99.90
11093;DHT22;5600;50.864;6.102;2024-02-15T20:07:33;12.20;99.90
11093;DHT22;5600;50.864;6.102;2024-02-15T20:10:37;12.20;99.90
11093;DHT22;5600;50.864;6.102;2024-02-15T20:13:38;12.30;99.90
11093;DHT22;5600;50.864;6.102;2024-02-15T20:16:38;12.40;99.90
11093;DHT22;5600;50.864;6.102;2024-02-15T20:22:42;12.70;99.90
11093;DHT22;5600;50.864;6.102;2024-02-15T20:31:48;13.00;99.90
11093;DHT22;5600;50.864;6.102;2024-02-15T20:34:48;13.00;99.90
11093;DHT22;5600;50.864;6.102;2024-02-15T20:37:49;12.90;99.90
11093;DHT22;5600;50.864;6.102;2024-02-15T20:43:52;12.40;99.90
11093;DHT22;5600;50.864;6.102;2024-02-15T20:46:53;12.20;99.90
11093;DHT22;5600;50.864;6.102;2024-02-15T20:55:56;12.10;99.90
11093;DHT22;5600;50.864;6.102;2024-02-15T21:01:58;12.40;99.90
11093;DHT22;5600;50.864;6.102;2024-02-15T21:05:01;12.60;99.90
11093;DHT22;5600;50.864;6.102;2024-02-15T21:08:02;13.00;99.90
11093;DHT22;5600;50.864;6.102;2024-02-15T21:14:04;13.40;99.90
11093;DHT22;5600;50.864;6.102;2024-02-15T21:17:04;13.60;99.90
11093;DHT22;5600;50.864;6.102;2024-02-15T21:20:08;13.60;99.90
11093;DHT22;5600;50.864;6.102;2024-02-15T21:23:16;13.70;99.90
11093;DHT22;5600;50.864;6.102;2024-02-15T21:29:18;13.70;99.90
11093;DHT22;5600;50.864;6.102;2024-02-15T21:35:21;13.70;99.90
11093;DHT22;5600;50.864;6.102;2024-02-15T21:38:23;13.70;99.90
11093;DHT22;5600;50.864;6.102;2024-02-15T21:41:24;13.70;99.90
11093;DHT22;5600;50.864;6.102;2024-02-15T21:44:25;13.60;99.90
11093;DHT22;5600;50.864;6.102;2024-02-15T21:47:25;13.60;99.90
11093;DHT22;5600;50.864;6.102;2024-02-15T21:53:27;13.50;99.90
11093;DHT22;5600;50.864;6.102;2024-02-15T21:56:28;13.40;99.90
11093;DHT22;5600;50.864;6.102;2024-02-15T21:59:32;13.40;99.90
11093;DHT22;5600;50.864;6.102;2024-02-15T22:05:35;13.50;99.90
11093;DHT22;5600;50.864;6.102;2024-02-15T22:08:36;13.50;99.90
11093;DHT22;5600;50.864;6.102;2024-02-15T22:14:38;13.40;99.90
11093;DHT22;5600;50.864;6.102;2024-02-15T22:17:39;13.40;99.90
11093;DHT22;5600;50.864;6.102;2024-02-15T22:20:40;13.40;99.90
11093;DHT22;5600;50.864;6.102;2024-02-15T22:23:42;13.40;99.90
11093;DHT22;5600;50.864;6.102;2024-02-15T22:32:45;13.40;99.90
11093;DHT22;5600;50.864;6.102;2024-02-15T22:35:47;13.40;99.90
11093;DHT22;5600;50.864;6.102;2024-02-15T22:41:50;13.40;99.90
11093;DHT22;5600;50.864;6.102;2024-02-15T22:44:50;13.40;99.90
11093;DHT22;5600;50.864;6.102;2024-02-15T22:47:51;13.40;99.90
11093;DHT22;5600;50.864;6.102;2024-02-15T22:53:53;13.60;99.90
11093;DHT22;5600;50.864;6.102;2024-02-15T23:05:57;13.80;99.90
11093;DHT22;5600;50.864;6.102;2024-02-15T23:08:59;13.80;99.90
11093;DHT22;5600;50.864;6.102;2024-02-15T23:12:00;13.70;99.90
11093;DHT22;5600;50.864;6.102;2024-02-15T23:15:03;13.70;99.90
11093;DHT22;5600;50.864;6.102;2024-02-15T23:18:05;13.70;99.90
11093;DHT22;5600;50.864;6.102;2024-02-15T23:21:05;13.60;99.90
11093;DHT22;5600;50.864;6.102;2024-02-15T23:27:07;13.70;99.90
11093;DHT22;5600;50.864;6.102;2024-02-15T23:30:08;13.70;99.90
11093;DHT22;5600;50.864;6.102;2024-02-15T23:36:12;13.70;99.90
11093;DHT22;5600;50.864;6.102;2024-02-15T23:42:51;13.80;99.90
11093;DHT22;5600;50.864;6.102;2024-02-15T23:51:55;14.00;99.90
11093;DHT22;5600;50.864;6.102;2024-02-15T23:54:56;14.10;99.90
11093;DHT22;5600;50.864;6.102;2024-02-15T23:57:56;14.20;99.90
